الصفحة الرئيسية
METAR-TAF:

METAR-TAF

مطار :

مطار أنتونيو بي وان بات الدولي

Hagåtña, غوام, الولايات المتحدة

دائرة عرض: 13-29N, خط طول: 144-48E, ارتفاع: 91 متر

مراقبة الطقس الحالي

تاريخ ووقت الإصدار 15 دقيقة قبل الساعة 11:54UTC
ريح 10 عقدة من الشرق/الشمال الشرقي
درجة الحرارة 25°درجة مئوية
الرطوبة 89%
ضغط 1010 hPa
الرؤية: 16.1 كم
غيوم متفرقة على ارتفاع 5000 قدم

METAR: PGUM 261154Z 06010KT 10SM SCT050 25/23 A2982 RMK AO2 RAE1055 SLP091 P0000 60000 70001 T02500228 10300 20250 50009

زمن: 22:09 (12:09 UTC)

توقعات

تاريخ ووقت الإصدار 39 دقيقة قبل الساعة 11:30UTC
التوقعات صالحة من26 الساعة 12 UTC إلى 27 الساعة 18 UTC
ريح 9 عقدة من الشمال الشرقي
الرؤية: 10 كم
غيوم قليلة على ارتفاع 1700 قدم
غيوم متفرقة على ارتفاع 3000 قدم
غيوم مفككة على ارتفاع 4500 قدم
زخات في الجوار

TAF: PGUM 261130Z 2612/2718 05009KT P6SM VCSH FEW017 SCT030 BKN045

أرصاد الطقس والتوقعات من أكثر من 4000 مطار (تقارير الطقس للمطار METAR والتنبؤ بالطقس بالمطارTAF).

المحطات المتاحة هي النقط الصفراء والحمراء على الخريطة.

حرك المؤشر فوق النقطة لمعرفة اسم المحطة.

ثم انقر لمعرفة أرصاد وتوقعات الطقس.

لتغيير الخارطة: اضغط على الأزرار الخضراء مع رمز الصليب الأسود للتكبير. على الزر الأخضر مع شرطة للتصغير، أو على الأسهم الخضراء للخرائط المجاورة.


METAR-TAF: